Spiro, Oklahoma
Current Conditions -  °F | °C
As of 9:35 PM on Sunday 23 Nov 2014 (Local Time) from KRKR Reporting Station
Overcast Overcast  
Wind Chill: 52°   Ceiling: 2300
Heat Index: 52°   Visibility: 10mi
Dew Point: 42°   Wind: 21mph
Humidity: 69%   Direction: 270°W
Pressure: 29.52"   Gusts: 31mph
Location:  35.24°N, 94.62°W
Report Text: KRKR 240335Z AUTO 27018G27KT 10SM OVC023 11/06 A2952 RMK AO2 T01130057
Loading
Personal Weather Stations






























Interactive Weather Map New forecast layout! Learn more

10-Day Weather Forecast

Advertisements
Track Severe Weather on mobile